Time;durP1;ratioP1;P1;durP2;ratioP2;P2;SDS_P1;SDS_P2;PMS_P1;PMS_P2;Temp;Humidity;BMP_temperature;BMP_pressure;BME280_temperature;BME280_humidity;BME280_pressure;Samples;Min_cycle;Max_cycle;Signal;HPM_P1;HPM_P2
2023/11/21 00:01:05;;;;;;;5.17;2.77;;;8.90;1.00;;;;;;6218528;23;20419;-57
2023/11/21 00:03:31;;;;;;;3.87;2.37;;;9.00;1.00;;;;;;6218348;23;20843;-56
2023/11/21 00:05:57;;;;;;;5.77;2.33;;;8.80;1.00;;;;;;6218598;23;20509;-59
2023/11/21 00:08:22;;;;;;;7.33;3.20;;;8.70;1.00;;;;;;6218438;23;20701;-59
2023/11/21 00:10:48;;;;;;;5.20;2.80;;;8.50;99.90;;;;;;6218692;23;20221;-58
2023/11/21 00:13:15;;;;;;;8.83;2.90;;;8.50;99.90;;;;;;6217714;23;20162;-58
2023/11/21 00:15:41;;;;;;;5.60;2.60;;;8.40;99.90;;;;;;6218169;23;20514;-59
2023/11/21 00:18:07;;;;;;;3.63;2.60;;;8.30;99.90;;;;;;6218423;23;20373;-58
2023/11/21 00:20:33;;;;;;;5.90;2.70;;;8.20;99.90;;;;;;6218231;23;20427;-57
2023/11/21 00:22:59;;;;;;;6.23;2.70;;;8.10;99.90;;;;;;6217652;23;20272;-58
2023/11/21 00:25:26;;;;;;;6.40;2.70;;;8.10;99.90;;;;;;6219137;23;20387;-57
2023/11/21 00:27:51;;;;;;;6.57;3.30;;;8.00;1.00;;;;;;6218527;23;20400;-57
2023/11/21 00:30:17;;;;;;;5.57;2.87;;;7.90;99.90;;;;;;6219234;23;20765;-57
2023/11/21 00:32:43;;;;;;;6.30;2.80;;;7.90;1.00;;;;;;6218800;23;20168;-58
2023/11/21 00:35:08;;;;;;;5.97;3.10;;;7.80;1.00;;;;;;6191871;23;20142;-57
2023/11/21 00:37:34;;;;;;;5.47;2.70;;;7.80;1.00;;;;;;6217711;23;20154;-60
2023/11/21 00:40:00;;;;;;;6.40;3.10;;;7.80;1.00;;;;;;6217752;23;20130;-59
2023/11/21 00:42:25;;;;;;;4.13;2.13;;;7.80;1.00;;;;;;6217482;23;20237;-58
2023/11/21 00:44:51;;;;;;;7.00;2.60;;;7.80;1.00;;;;;;6217079;23;20497;-58
2023/11/21 00:47:17;;;;;;;5.23;3.00;;;7.70;1.00;;;;;;6217778;23;20265;-58
2023/11/21 00:49:43;;;;;;;5.80;3.50;;;7.70;1.00;;;;;;6217636;23;20467;-58
2023/11/21 00:52:09;;;;;;;3.70;2.40;;;7.70;1.00;;;;;;6218149;23;20150;-58
2023/11/21 00:54:34;;;;;;;5.60;2.70;;;7.70;1.00;;;;;;6218069;23;20369;-57
2023/11/21 00:57:00;;;;;;;6.10;2.97;;;7.70;1.00;;;;;;6191478;23;20150;-57
2023/11/21 00:59:25;;;;;;;3.67;2.50;;;7.70;1.00;;;;;;6218231;23;20166;-57
2023/11/21 01:01:51;;;;;;;5.70;2.43;;;7.70;1.00;;;;;;6216968;23;20146;-57
2023/11/21 01:04:17;;;;;;;5.20;2.40;;;7.70;1.00;;;;;;6217256;23;20639;-57
2023/11/21 01:06:42;;;;;;;5.53;2.53;;;7.70;1.00;;;;;;6217279;23;20568;-58
2023/11/21 01:09:08;;;;;;;4.70;2.83;;;7.70;1.00;;;;;;6218492;23;20208;-54
2023/11/21 01:11:37;;;;;;;4.67;2.03;;;7.70;1.00;;;;;;6217712;23;20215;-57
2023/11/21 01:14:06;;;;;;;2.63;2.07;;;7.70;1.00;;;;;;6217729;23;20142;-57
2023/11/21 01:16:35;;;;;;;3.83;2.63;;;7.70;1.00;;;;;;6217491;23;20381;-58
2023/11/21 01:19:01;;;;;;;4.67;2.17;;;7.70;1.00;;;;;;6217252;23;20346;-55
2023/11/21 01:21:27;;;;;;;5.23;2.23;;;7.70;1.00;;;;;;6217849;23;20368;-56
2023/11/21 01:23:55;;;;;;;9.57;3.07;;;7.60;1.00;;;;;;6218125;23;20369;-58
2023/11/21 01:26:20;;;;;;;4.90;2.37;;;7.60;1.00;;;;;;6216312;23;20385;-58
2023/11/21 01:28:48;;;;;;;7.07;2.53;;;7.60;1.00;;;;;;6216568;23;20388;-57
2023/11/21 01:31:17;;;;;;;3.07;1.53;;;7.60;1.00;;;;;;6216201;23;20154;-57
2023/11/21 01:33:43;;;;;;;5.50;2.37;;;7.60;1.00;;;;;;6215834;23;20431;-57
2023/11/21 01:36:09;;;;;;;3.40;1.83;;;7.60;1.00;;;;;;6216205;23;20392;-59
2023/11/21 01:38:35;;;;;;;3.70;2.03;;;7.60;1.00;;;;;;6217216;23;20382;-54
2023/11/21 01:41:00;;;;;;;6.00;2.00;;;7.60;1.00;;;;;;6217609;23;20377;-58
2023/11/21 01:43:27;;;;;;;3.27;2.00;;;7.60;1.00;;;;;;6216334;23;20206;-57
2023/11/21 01:45:56;;;;;;;4.60;1.80;;;7.60;1.00;;;;;;6217571;23;20183;-57
2023/11/21 01:48:22;;;;;;;2.87;1.50;;;7.60;1.00;;;;;;6190759;23;20879;-54
2023/11/21 01:50:48;;;;;;;6.60;2.40;;;7.60;1.00;;;;;;6166134;23;20385;-57
2023/11/21 01:53:14;;;;;;;3.43;1.90;;;7.60;1.00;;;;;;6190929;23;20389;-57
2023/11/21 01:55:42;;;;;;;8.33;1.70;;;7.60;1.00;;;;;;6217466;23;20142;-57
2023/11/21 01:58:07;;;;;;;4.80;1.90;;;7.60;1.00;;;;;;6191495;23;20486;-58
2023/11/21 02:00:33;;;;;;;3.97;2.03;;;7.60;1.00;;;;;;6217472;23;20373;-57
2023/11/21 02:02:59;;;;;;;3.13;2.10;;;7.50;1.00;;;;;;6217488;23;20153;-57
2023/11/21 02:05:25;;;;;;;2.70;1.53;;;7.60;1.00;;;;;;6217155;23;20430;-54
2023/11/21 02:07:52;;;;;;;3.27;1.80;;;7.50;1.00;;;;;;6216275;23;20425;-56
2023/11/21 02:10:22;;;;;;;5.23;1.70;;;7.60;1.00;;;;;;6217253;23;20396;-54
2023/11/21 02:12:50;;;;;;;3.37;1.70;;;7.50;1.00;;;;;;6216678;23;20361;-59
2023/11/21 02:15:20;;;;;;;3.43;1.53;;;7.50;1.00;;;;;;6217563;23;20372;-54
2023/11/21 02:17:51;;;;;;;2.30;1.30;;;7.50;1.00;;;;;;6217436;23;20389;-56
2023/11/21 02:20:17;;;;;;;2.33;1.40;;;7.50;1.00;;;;;;6217486;23;20468;-57
2023/11/21 02:22:48;;;;;;;3.83;1.60;;;7.50;1.00;;;;;;6190461;23;20951;-56
2023/11/21 02:25:14;;;;;;;2.40;1.33;;;7.50;1.00;;;;;;6216840;23;20388;-55
2023/11/21 02:27:39;;;;;;;3.83;1.50;;;7.50;1.00;;;;;;6217811;23;20400;-57
2023/11/21 02:30:07;;;;;;;2.13;0.90;;;7.50;1.00;;;;;;6219815;23;20157;-57
2023/11/21 02:32:34;;;;;;;3.10;1.30;;;7.50;1.00;;;;;;6192115;23;20157;-58
2023/11/21 02:35:02;;;;;;;2.63;1.07;;;7.50;1.00;;;;;;6219426;23;20384;-56
2023/11/21 02:37:28;;;;;;;4.53;1.37;;;7.50;1.00;;;;;;6192534;23;20404;-57
2023/11/21 02:39:53;;;;;;;2.40;1.13;;;7.60;1.00;;;;;;6217972;23;20428;-58
2023/11/21 02:42:19;;;;;;;6.43;2.03;;;7.60;1.00;;;;;;6219152;23;20422;-57
2023/11/21 02:44:45;;;;;;;4.60;1.17;;;7.50;1.00;;;;;;6219609;23;20533;-56
2023/11/21 02:47:10;;;;;;;3.00;1.23;;;7.50;1.00;;;;;;6192838;23;20181;-55
2023/11/21 02:49:36;;;;;;;1.43;1.07;;;7.40;1.00;;;;;;6191511;23;20253;-57
2023/11/21 02:52:02;;;;;;;2.60;0.90;;;7.40;1.00;;;;;;6218924;23;20193;-57
2023/11/21 02:54:27;;;;;;;2.57;1.43;;;7.50;1.00;;;;;;6218323;23;20130;-58
2023/11/21 02:56:53;;;;;;;2.17;1.03;;;7.50;1.00;;;;;;6219294;23;20385;-53
2023/11/21 02:59:19;;;;;;;4.03;1.17;;;7.40;1.00;;;;;;6219166;23;20153;-56
2023/11/21 03:01:45;;;;;;;1.37;0.90;;;7.40;1.00;;;;;;6218707;23;20174;-56
2023/11/21 03:04:19;;;;;;;2.33;1.13;;;7.40;1.00;;;;;;6218902;23;20400;-57
2023/11/21 03:06:44;;;;;;;2.50;1.30;;;7.40;1.00;;;;;;6218670;23;20409;-55
2023/11/21 03:09:12;;;;;;;2.87;1.10;;;7.40;1.00;;;;;;6191727;23;20439;-56
2023/11/21 03:11:38;;;;;;;3.60;1.40;;;7.40;1.00;;;;;;6218142;23;20150;-58
2023/11/21 03:14:03;;;;;;;2.03;0.90;;;7.40;1.00;;;;;;6217695;23;20816;-54
2023/11/21 03:16:29;;;;;;;3.67;1.20;;;7.40;1.00;;;;;;6218294;23;20397;-56
2023/11/21 03:18:54;;;;;;;1.97;1.10;;;7.40;1.00;;;;;;6218743;23;20209;-57
2023/11/21 03:21:20;;;;;;;2.17;1.27;;;7.30;1.00;;;;;;6218819;23;20554;-58
2023/11/21 03:23:46;;;;;;;2.07;1.20;;;7.30;1.00;;;;;;6218561;23;20241;-59
2023/11/21 03:26:14;;;;;;;1.67;1.00;;;7.30;1.00;;;;;;6217800;23;20364;-57
2023/11/21 03:28:40;;;;;;;1.83;1.00;;;7.30;1.00;;;;;;6218343;23;20177;-58
2023/11/21 03:31:06;;;;;;;4.40;1.30;;;7.30;1.00;;;;;;6191797;23;20442;-58
2023/11/21 03:33:32;;;;;;;3.30;1.27;;;7.30;1.00;;;;;;6217220;23;20467;-58
2023/11/21 03:35:58;;;;;;;2.47;1.30;;;7.30;1.00;;;;;;6218422;23;20396;-56
2023/11/21 03:38:23;;;;;;;1.30;0.90;;;7.30;1.00;;;;;;6218645;23;20385;-57
2023/11/21 03:40:50;;;;;;;1.57;0.90;;;7.30;1.00;;;;;;6217937;23;20150;-57
2023/11/21 03:43:16;;;;;;;4.07;1.40;;;7.30;1.00;;;;;;6217596;23;20154;-58
2023/11/21 03:45:41;;;;;;;1.60;0.70;;;7.20;1.00;;;;;;6189656;23;20400;-56
2023/11/21 03:48:08;;;;;;;3.93;1.03;;;7.30;1.00;;;;;;6217278;23;20174;-57
2023/11/21 03:50:34;;;;;;;2.53;1.17;;;7.30;1.00;;;;;;6190892;23;20150;-57
2023/11/21 03:53:00;;;;;;;2.90;0.90;;;7.30;1.00;;;;;;6215805;23;20395;-58
2023/11/21 03:55:25;;;;;;;2.13;1.00;;;7.40;1.00;;;;;;6216847;23;20407;-54
2023/11/21 03:57:51;;;;;;;3.93;1.07;;;7.40;1.00;;;;;;6217078;23;20141;-58
2023/11/21 04:00:20;;;;;;;2.40;0.97;;;7.30;1.00;;;;;;6190207;23;20545;-58
2023/11/21 04:02:46;;;;;;;2.63;1.17;;;7.40;1.00;;;;;;6217514;23;20447;-57
2023/11/21 04:05:12;;;;;;;1.77;1.20;;;7.40;1.00;;;;;;6218299;23;20384;-53
2023/11/21 04:07:38;;;;;;;2.30;1.13;;;7.30;1.00;;;;;;6217897;23;20272;-56
2023/11/21 04:10:07;;;;;;;3.03;0.97;;;7.40;1.00;;;;;;6218368;23;20361;-54
2023/11/21 04:12:32;;;;;;;3.47;0.80;;;7.40;1.00;;;;;;6216644;23;20784;-57
2023/11/21 04:14:58;;;;;;;3.37;1.07;;;7.30;1.00;;;;;;6217923;23;20595;-56
2023/11/21 04:17:24;;;;;;;1.73;0.87;;;7.30;1.00;;;;;;6217315;23;20232;-59
2023/11/21 04:19:49;;;;;;;1.17;0.77;;;7.40;1.00;;;;;;6218048;23;20204;-57
2023/11/21 04:22:15;;;;;;;1.50;1.13;;;7.30;1.00;;;;;;6217704;23;20283;-56
2023/11/21 04:24:40;;;;;;;2.23;1.20;;;7.30;1.00;;;;;;6217707;23;20138;-57
2023/11/21 04:27:06;;;;;;;2.03;0.90;;;7.30;1.00;;;;;;6217890;23;20174;-56
2023/11/21 04:29:31;;;;;;;1.37;0.70;;;7.40;1.00;;;;;;6218289;23;20541;-53
2023/11/21 04:31:57;;;;;;;1.50;0.83;;;7.30;1.00;;;;;;6216089;23;20157;-58
2023/11/21 04:34:23;;;;;;;1.13;0.80;;;7.30;1.00;;;;;;6217155;23;20215;-57
2023/11/21 04:36:49;;;;;;;2.53;1.23;;;7.30;1.00;;;;;;6216895;23;20139;-56
2023/11/21 04:39:15;;;;;;;3.67;1.00;;;7.20;1.00;;;;;;6216899;23;20469;-58
2023/11/21 04:41:40;;;;;;;1.60;1.03;;;7.20;1.00;;;;;;6216957;23;20508;-57
2023/11/21 04:44:06;;;;;;;1.20;1.00;;;7.20;1.00;;;;;;6217553;23;20154;-57
2023/11/21 04:46:32;;;;;;;1.90;1.00;;;7.20;1.00;;;;;;6217809;23;20706;-55
2023/11/21 04:48:58;;;;;;;0.90;0.67;;;7.30;1.00;;;;;;6189525;23;20138;-59
2023/11/21 04:51:26;;;;;;;1.10;0.83;;;7.30;1.00;;;;;;6215939;23;20139;-57
2023/11/21 04:53:52;;;;;;;1.60;1.00;;;7.30;1.00;;;;;;6188001;23;20404;-55
2023/11/21 04:56:18;;;;;;;1.40;1.30;;;7.30;1.00;;;;;;6214153;23;20381;-56
2023/11/21 04:58:44;;;;;;;1.60;0.93;;;7.30;1.00;;;;;;6215560;23;20161;-57
2023/11/21 05:01:09;;;;;;;2.20;1.53;;;7.40;1.00;;;;;;6214455;23;20146;-57
2023/11/21 05:03:35;;;;;;;1.67;1.13;;;7.30;1.00;;;;;;6189127;23;20364;-58
2023/11/21 05:06:01;;;;;;;1.20;0.90;;;7.30;1.00;;;;;;6189290;23;20161;-56
2023/11/21 05:08:27;;;;;;;1.97;0.80;;;7.30;1.00;;;;;;6215594;23;20887;-56
2023/11/21 05:10:53;;;;;;;1.73;0.80;;;7.30;1.00;;;;;;6214205;23;20157;-57
2023/11/21 05:13:19;;;;;;;1.60;1.20;;;7.40;1.00;;;;;;6216106;23;20420;-57
2023/11/21 05:15:45;;;;;;;2.87;1.30;;;7.30;1.00;;;;;;6216115;23;20372;-58
2023/11/21 05:18:13;;;;;;;4.13;1.20;;;7.30;1.00;;;;;;6215278;23;20417;-58
2023/11/21 05:20:39;;;;;;;3.60;1.10;;;7.20;1.00;;;;;;6216455;23;20158;-56
2023/11/21 05:23:05;;;;;;;1.80;1.40;;;7.30;1.00;;;;;;6190070;23;20859;-53
2023/11/21 05:25:30;;;;;;;1.33;1.10;;;7.30;1.00;;;;;;6216910;23;20188;-53
2023/11/21 05:27:56;;;;;;;2.47;1.40;;;7.30;1.00;;;;;;6215774;23;20201;-57
2023/11/21 05:30:22;;;;;;;4.23;1.20;;;7.30;1.00;;;;;;6215756;23;20154;-57
2023/11/21 05:32:49;;;;;;;1.50;1.17;;;7.20;1.00;;;;;;6214866;23;20157;-56
2023/11/21 05:35:17;;;;;;;2.07;1.40;;;7.30;1.00;;;;;;6214614;23;20381;-57
2023/11/21 05:37:44;;;;;;;1.50;1.37;;;7.20;1.00;;;;;;6213411;23;20364;-59
2023/11/21 05:40:10;;;;;;;2.50;1.50;;;7.20;1.00;;;;;;6214035;23;20447;-59
2023/11/21 05:42:36;;;;;;;3.63;1.60;;;7.20;1.00;;;;;;6214801;23;20392;-57
2023/11/21 05:45:11;;;;;;;2.30;1.43;;;7.20;1.00;;;;;;6214309;23;20702;-57
2023/11/21 05:47:46;;;;;;;2.40;1.27;;;7.20;1.00;;;;;;6188771;23;20444;-59
2023/11/21 05:50:17;;;;;;;1.60;1.30;;;7.20;1.00;;;;;;6216124;23;20356;-54
2023/11/21 05:52:44;;;;;;;1.97;1.27;;;7.20;1.00;;;;;;6214995;23;20419;-56
2023/11/21 05:55:10;;;;;;;1.90;1.20;;;7.20;1.00;;;;;;6214804;23;20407;-55
2023/11/21 05:57:37;;;;;;;2.13;1.57;;;7.20;1.00;;;;;;6215222;23;20499;-59
2023/11/21 06:00:20;;;;;;;1.57;1.43;;;7.20;1.00;;;;;;6214045;23;20150;-58
2023/11/21 06:02:47;;;;;;;1.67;1.40;;;7.20;1.00;;;;;;6190380;23;20411;-57
2023/11/21 06:05:12;;;;;;;2.63;1.70;;;7.20;1.00;;;;;;6211812;23;20654;-57
2023/11/21 06:07:38;;;;;;;1.87;1.47;;;7.20;1.00;;;;;;6214374;23;20427;-56
2023/11/21 06:10:10;;;;;;;2.17;1.60;;;7.10;1.00;;;;;;6186723;23;20161;-57
2023/11/21 06:12:35;;;;;;;2.10;1.73;;;7.10;1.00;;;;;;6187650;23;20680;-56
2023/11/21 06:15:05;;;;;;;2.07;1.87;;;7.10;1.00;;;;;;6212092;23;20407;-57
2023/11/21 06:17:31;;;;;;;3.13;1.87;;;7.10;1.00;;;;;;6185413;23;20158;-57
2023/11/21 06:19:57;;;;;;;3.07;2.07;;;7.10;1.00;;;;;;6214576;23;20777;-56
2023/11/21 06:22:22;;;;;;;3.10;1.60;;;7.10;1.00;;;;;;6215674;23;20738;-55
2023/11/21 06:24:48;;;;;;;2.40;1.67;;;7.10;1.00;;;;;;6214918;23;20153;-57
2023/11/21 06:27:14;;;;;;;2.60;1.60;;;7.10;1.00;;;;;;6215326;23;20188;-60
2023/11/21 06:29:42;;;;;;;4.53;1.80;;;7.10;1.00;;;;;;6215710;23;20150;-59
2023/11/21 06:32:08;;;;;;;4.37;1.70;;;7.10;1.00;;;;;;6215125;23;20130;-58
2023/11/21 06:34:33;;;;;;;4.03;2.23;;;7.10;1.00;;;;;;6213499;23;20385;-55
2023/11/21 06:36:59;;;;;;;2.10;1.87;;;7.10;1.00;;;;;;6212578;23;20446;-55
2023/11/21 06:39:25;;;;;;;2.90;2.10;;;7.10;1.00;;;;;;6214285;23;20678;-55
2023/11/21 06:41:50;;;;;;;1.97;1.77;;;7.20;1.00;;;;;;6214280;23;20150;-57
2023/11/21 06:44:16;;;;;;;3.83;2.00;;;7.20;1.00;;;;;;6215904;23;20158;-54
2023/11/21 06:46:42;;;;;;;2.50;1.77;;;7.20;1.00;;;;;;6214629;23;20160;-56
2023/11/21 06:49:08;;;;;;;1.83;1.73;;;7.20;1.00;;;;;;6214711;23;20178;-58
2023/11/21 06:51:34;;;;;;;3.37;2.37;;;7.20;1.00;;;;;;6188138;23;20399;-56
2023/11/21 06:53:59;;;;;;;2.03;1.77;;;7.30;1.00;;;;;;6215451;23;20496;-59
2023/11/21 06:56:25;;;;;;;2.10;1.87;;;7.30;1.00;;;;;;6215279;23;20162;-57
2023/11/21 06:58:53;;;;;;;1.60;1.40;;;7.40;1.00;;;;;;6214983;23;20430;-55
2023/11/21 07:01:19;;;;;;;2.13;1.93;;;7.40;1.00;;;;;;6215091;23;20138;-57
2023/11/21 07:03:45;;;;;;;2.13;1.93;;;7.50;1.00;;;;;;6215210;23;21039;-56
2023/11/21 07:06:11;;;;;;;2.27;2.07;;;7.50;1.00;;;;;;6215411;23;20153;-57
2023/11/21 07:08:37;;;;;;;3.33;2.00;;;7.50;1.00;;;;;;6215801;23;20185;-57
2023/11/21 07:11:03;;;;;;;1.77;1.67;;;7.50;1.00;;;;;;6215455;23;20511;-57
2023/11/21 07:13:30;;;;;;;2.63;1.70;;;7.50;1.00;;;;;;6213252;23;20350;-57
2023/11/21 07:15:56;;;;;;;2.17;1.80;;;7.50;1.00;;;;;;6215587;23;20381;-56
2023/11/21 07:18:21;;;;;;;2.63;1.70;;;7.50;1.00;;;;;;6217608;23;20396;-57
2023/11/21 07:20:47;;;;;;;5.80;1.90;;;7.50;1.00;;;;;;6216815;23;20165;-59
2023/11/21 07:23:12;;;;;;;2.40;2.20;;;7.50;1.00;;;;;;6216253;23;20208;-56
2023/11/21 07:25:38;;;;;;;4.10;2.20;;;7.50;1.00;;;;;;6216586;23;20134;-57
2023/11/21 07:28:05;;;;;;;2.20;1.80;;;7.50;1.00;;;;;;6215905;23;20185;-55
2023/11/21 07:30:30;;;;;;;2.90;1.80;;;7.50;1.00;;;;;;6218040;23;20204;-58
2023/11/21 07:32:56;;;;;;;3.90;2.30;;;7.50;1.00;;;;;;6216676;23;20805;-58
2023/11/21 07:35:22;;;;;;;2.57;2.20;;;7.60;1.00;;;;;;6218073;23;20154;-58
2023/11/21 07:37:48;;;;;;;3.70;2.63;;;7.50;1.00;;;;;;6215722;23;20134;-58
2023/11/21 07:40:14;;;;;;;4.53;2.30;;;7.50;1.00;;;;;;6217551;23;20442;-59
2023/11/21 07:42:42;;;;;;;2.80;1.70;;;7.50;1.00;;;;;;6216500;23;20500;-57
2023/11/21 07:45:08;;;;;;;2.57;2.37;;;7.50;1.00;;;;;;6216698;23;20835;-57
2023/11/21 07:47:34;;;;;;;2.43;2.00;;;7.60;1.00;;;;;;6216732;23;20436;-59
2023/11/21 07:50:02;;;;;;;4.57;1.90;;;7.60;1.00;;;;;;6215747;23;20780;-59
2023/11/21 07:52:28;;;;;;;2.60;2.00;;;7.60;1.00;;;;;;6216350;23;20127;-56
2023/11/21 07:54:53;;;;;;;4.13;2.07;;;7.70;1.00;;;;;;6217039;23;20391;-58
2023/11/21 07:57:19;;;;;;;3.07;2.00;;;7.70;1.00;;;;;;6217519;23;20185;-59
2023/11/21 07:59:44;;;;;;;1.77;1.63;;;7.70;1.00;;;;;;6216193;23;20173;-57
2023/11/21 08:02:10;;;;;;;2.67;1.90;;;7.80;1.00;;;;;;6213638;23;20130;-57
2023/11/21 08:04:35;;;;;;;2.50;2.30;;;7.80;1.00;;;;;;6214066;23;20509;-58
2023/11/21 08:07:01;;;;;;;2.13;1.60;;;7.90;1.00;;;;;;6214522;23;20484;-57
2023/11/21 08:09:27;;;;;;;2.57;2.30;;;7.90;1.00;;;;;;6216316;23;20158;-57
2023/11/21 08:11:53;;;;;;;6.30;3.20;;;7.90;1.00;;;;;;6215141;23;20385;-58
2023/11/21 08:14:20;;;;;;;2.57;2.13;;;7.90;1.00;;;;;;6214825;23;20181;-58
2023/11/21 08:16:46;;;;;;;2.47;2.00;;;8.00;1.00;;;;;;6215155;23;20398;-59
2023/11/21 08:19:11;;;;;;;1.50;1.30;;;8.00;1.00;;;;;;6216867;23;20392;-55
2023/11/21 08:21:40;;;;;;;1.93;1.20;;;8.10;99.90;;;;;;6215878;23;20189;-55
2023/11/21 08:24:10;;;;;;;1.80;1.40;;;8.20;99.90;;;;;;6217263;23;20312;-58
2023/11/21 08:26:36;;;;;;;1.63;1.30;;;8.30;99.90;;;;;;6217750;23;20396;-59
2023/11/21 08:29:02;;;;;;;2.13;1.40;;;8.40;99.90;;;;;;6164135;23;20736;-58
2023/11/21 08:31:28;;;;;;;2.77;1.63;;;8.50;99.90;;;;;;6189121;23;20440;-57
2023/11/21 08:33:55;;;;;;;2.63;1.40;;;8.60;99.90;;;;;;6215414;23;20161;-58
2023/11/21 08:36:24;;;;;;;2.93;1.60;;;8.70;99.90;;;;;;6213831;23;20385;-57
2023/11/21 08:38:52;;;;;;;2.40;1.50;;;8.80;99.90;;;;;;6214443;23;20385;-58
2023/11/21 08:41:17;;;;;;;1.90;1.63;;;9.00;99.90;;;;;;6214619;23;20415;-57
2023/11/21 08:43:43;;;;;;;1.80;1.27;;;9.10;16.40;;;;;;6187889;23;20366;-57
2023/11/21 08:46:09;;;;;;;2.07;1.37;;;9.30;1.00;;;;;;6188721;23;20165;-58
2023/11/21 08:48:37;;;;;;;1.50;1.20;;;9.30;1.00;;;;;;6216026;23;20424;-57
2023/11/21 08:51:04;;;;;;;2.33;1.17;;;9.40;1.00;;;;;;6216370;23;20150;-57
2023/11/21 08:53:30;;;;;;;1.40;1.30;;;9.40;1.00;;;;;;6216362;23;20377;-57
2023/11/21 08:55:57;;;;;;;1.60;1.30;;;9.40;1.00;;;;;;6214736;23;20495;-56
2023/11/21 08:58:22;;;;;;;1.67;1.50;;;9.50;1.00;;;;;;6214397;23;20384;-57
2023/11/21 09:00:49;;;;;;;3.53;1.10;;;9.50;1.00;;;;;;6213740;23;20408;-56
2023/11/21 09:03:15;;;;;;;7.10;1.37;;;9.90;1.00;;;;;;6214167;23;20451;-57
2023/11/21 09:05:40;;;;;;;3.33;1.30;;;10.40;1.00;;;;;;6214089;23;20568;-58
2023/11/21 09:08:06;;;;;;;2.23;1.20;;;11.50;1.00;;;;;;6213703;23;20177;-55
2023/11/21 09:10:35;;;;;;;4.93;1.77;;;12.80;1.00;;;;;;6213252;23;20133;-54
2023/11/21 09:13:01;;;;;;;3.07;1.40;;;13.20;1.00;;;;;;6186746;23;20645;-56
2023/11/21 09:15:27;;;;;;;2.50;1.00;;;13.90;97.60;;;;;;6189190;23;20483;-57
2023/11/21 09:17:53;;;;;;;1.70;1.37;;;13.60;1.00;;;;;;6215910;23;20385;-58
2023/11/21 09:20:22;;;;;;;2.67;1.53;;;13.10;1.00;;;;;;6188499;23;20160;-57
2023/11/21 09:22:48;;;;;;;3.30;1.70;;;12.40;1.00;;;;;;6215174;23;20189;-57
2023/11/21 09:25:14;;;;;;;3.90;1.60;;;11.70;99.90;;;;;;6214989;23;20403;-57
2023/11/21 09:27:40;;;;;;;4.93;1.60;;;11.40;99.90;;;;;;6214114;23;20848;-59
2023/11/21 09:30:09;;;;;;;2.50;1.20;;;11.20;99.90;;;;;;6214490;23;20781;-59
2023/11/21 09:32:36;;;;;;;1.57;1.40;;;11.00;99.90;;;;;;6215687;23;20221;-59
2023/11/21 09:35:03;;;;;;;1.70;1.33;;;10.90;31.40;;;;;;6213936;23;20361;-56
2023/11/21 09:37:30;;;;;;;2.80;1.17;;;10.70;99.90;;;;;;6217504;23;20830;-58
2023/11/21 09:39:56;;;;;;;3.00;1.30;;;10.70;99.90;;;;;;6218483;23;20389;-59
2023/11/21 09:42:28;;;;;;;1.53;1.30;;;10.80;99.90;;;;;;6218669;23;20393;-57
2023/11/21 09:45:14;;;;;;;2.47;1.60;;;10.80;1.00;;;;;;6218523;23;20249;-57
2023/11/21 09:47:40;;;;;;;1.33;1.20;;;10.80;1.00;;;;;;6216984;23;20459;-58
2023/11/21 09:50:13;;;;;;;1.80;1.17;;;10.90;99.90;;;;;;6215739;23;20376;-57
2023/11/21 09:52:52;;;;;;;1.63;1.10;;;10.80;1.00;;;;;;6216931;23;20149;-57
2023/11/21 09:55:21;;;;;;;3.30;1.70;;;10.90;99.90;;;;;;6190928;23;20786;-57
2023/11/21 09:57:48;;;;;;;2.70;1.33;;;10.80;99.90;;;;;;6215967;23;20854;-58
2023/11/21 10:00:17;;;;;;;1.40;1.10;;;10.60;99.90;;;;;;6216288;23;20768;-59
2023/11/21 10:02:43;;;;;;;2.50;1.40;;;10.40;1.00;;;;;;6216761;23;20685;-58
2023/11/21 10:05:12;;;;;;;1.77;1.33;;;10.20;1.00;;;;;;6216935;23;20381;-59
2023/11/21 10:07:41;;;;;;;4.10;1.37;;;10.10;99.90;;;;;;6217400;23;20401;-55
2023/11/21 10:10:08;;;;;;;1.40;1.20;;;9.90;1.00;;;;;;6191705;23;20381;-57
2023/11/21 10:12:33;;;;;;;1.60;1.00;;;9.80;27.10;;;;;;6217692;23;20389;-59
2023/11/21 10:15:00;;;;;;;1.30;1.03;;;9.70;99.90;;;;;;6190450;23;20377;-57
2023/11/21 10:17:30;;;;;;;1.93;1.60;;;9.70;99.90;;;;;;6189410;23;20165;-59
2023/11/21 10:19:57;;;;;;;2.23;1.67;;;9.60;99.90;;;;;;6215452;23;20357;-56
2023/11/21 10:22:23;;;;;;;1.77;1.40;;;9.60;99.90;;;;;;6215328;23;20436;-57
2023/11/21 10:24:48;;;;;;;1.80;1.60;;;9.60;1.00;;;;;;6215870;23;20403;-56
2023/11/21 10:27:14;;;;;;;1.90;1.40;;;9.60;1.00;;;;;;6216289;23;20439;-57
2023/11/21 10:29:41;;;;;;;2.23;1.70;;;9.60;1.00;;;;;;6215858;23;20434;-58
2023/11/21 10:32:07;;;;;;;2.80;1.47;;;9.60;1.00;;;;;;6214882;23;20126;-57
2023/11/21 10:34:34;;;;;;;2.20;1.40;;;9.70;1.00;;;;;;6172681;23;20447;-57
2023/11/21 10:37:11;;;;;;;3.60;1.60;;;9.70;1.00;;;;;;6157006;23;20135;-55
2023/11/21 10:39:36;;;;;;;2.47;1.93;;;9.70;1.00;;;;;;6154933;23;20378;-58
2023/11/21 10:42:02;;;;;;;2.00;1.80;;;9.60;1.00;;;;;;6156964;23;20677;-57
2023/11/21 10:44:28;;;;;;;3.03;1.80;;;9.60;1.00;;;;;;6156520;23;20170;-58
2023/11/21 10:46:57;;;;;;;2.57;2.00;;;9.60;1.00;;;;;;6158024;23;20156;-58
2023/11/21 10:49:24;;;;;;;1.70;1.60;;;9.50;1.00;;;;;;6158057;23;20262;-57
2023/11/21 10:51:52;;;;;;;2.30;1.80;;;9.50;1.00;;;;;;6156670;23;20367;-56
2023/11/21 10:54:20;;;;;;;2.33;1.83;;;9.50;1.00;;;;;;6156218;23;20367;-57
2023/11/21 10:56:53;;;;;;;2.00;1.80;;;9.50;1.00;;;;;;6131396;23;20406;-56
2023/11/21 10:59:20;;;;;;;3.00;2.13;;;9.50;1.00;;;;;;6158258;23;20382;-57
2023/11/21 11:01:46;;;;;;;3.20;2.30;;;9.50;1.00;;;;;;6132021;23;20449;-58
2023/11/21 11:04:16;;;;;;;3.23;2.03;;;9.50;1.00;;;;;;6131439;23;20399;-56
2023/11/21 11:06:57;;;;;;;5.00;1.83;;;9.60;1.00;;;;;;6131067;23;20166;-58
2023/11/21 11:09:25;;;;;;;2.50;1.90;;;9.60;1.00;;;;;;6158215;23;20709;-57
2023/11/21 11:11:52;;;;;;;2.43;2.10;;;9.50;1.00;;;;;;6131503;23;20382;-59
2023/11/21 11:14:19;;;;;;;4.73;2.90;;;9.50;4.40;;;;;;6105938;23;20472;-57
2023/11/21 11:16:45;;;;;;;2.33;1.93;;;9.50;21.10;;;;;;6130910;23;20379;-59
2023/11/21 11:19:12;;;;;;;2.30;2.10;;;9.50;53.80;;;;;;6154243;23;20445;-58
2023/11/21 11:22:08;;;;;;;2.57;2.37;;;9.40;99.90;;;;;;6155043;23;20382;-58
2023/11/21 11:25:16;;;;;;;3.17;2.87;;;9.50;99.90;;;;;;6132287;23;20406;-59
2023/11/21 11:28:05;;;;;;;3.03;2.83;;;9.50;99.90;;;;;;6155667;23;20826;-55
2023/11/21 11:31:03;;;;;;;3.10;2.77;;;9.60;99.90;;;;;;6156168;23;20386;-55
2023/11/21 11:33:29;;;;;;;3.07;2.77;;;9.70;99.90;;;;;;6147220;23;20466;-55
2023/11/21 11:36:02;;;;;;;5.37;2.80;;;9.90;99.90;;;;;;6182092;23;20426;-57
2023/11/21 11:38:33;;;;;;;3.53;3.07;;;10.00;99.90;;;;;;6186576;23;20526;-55
2023/11/21 11:41:02;;;;;;;3.33;2.97;;;10.20;99.90;;;;;;6185776;23;20472;-58
2023/11/21 11:43:30;;;;;;;3.27;2.97;;;10.20;1.00;;;;;;6185698;23;20386;-57
2023/11/21 11:46:06;;;;;;;5.37;3.40;;;10.30;1.00;;;;;;6155159;23;20354;-57
2023/11/21 11:48:39;;;;;;;4.30;3.77;;;10.20;1.00;;;;;;6156385;23;20484;-58
2023/11/21 11:51:32;;;;;;;2.97;2.77;;;10.10;1.00;;;;;;6182397;23;20805;-56
2023/11/21 11:53:59;;;;;;;2.30;2.10;;;10.20;16.70;;;;;;6179336;23;20386;-56
2023/11/21 11:56:31;;;;;;;2.33;2.13;;;10.20;1.00;;;;;;6182595;23;20836;-55
2023/11/21 11:58:58;;;;;;;2.50;2.30;;;10.20;9.90;;;;;;6181471;23;20421;-57
2023/11/21 12:01:29;;;;;;;2.17;1.97;;;10.20;23.20;;;;;;6181276;23;20405;-56
2023/11/21 12:04:22;;;;;;;3.13;2.80;;;10.30;36.80;;;;;;6181885;23;20362;-54
2023/11/21 12:06:51;;;;;;;3.83;3.53;;;10.40;42.50;;;;;;6156976;23;20492;-54
2023/11/21 12:09:21;;;;;;;3.93;3.63;;;10.50;11.50;;;;;;6156847;23;20385;-58
2023/11/21 12:11:47;;;;;;;2.93;2.70;;;10.40;1.00;;;;;;6157873;23;20797;-56
2023/11/21 12:14:14;;;;;;;4.73;2.67;;;10.30;1.00;;;;;;6185211;23;20408;-56
2023/11/21 12:16:40;;;;;;;2.30;2.10;;;10.20;1.00;;;;;;6158545;23;20425;-55
2023/11/21 12:19:07;;;;;;;1.93;1.53;;;10.10;1.00;;;;;;6157104;23;20358;-53
2023/11/21 12:21:32;;;;;;;2.10;1.90;;;9.90;1.00;;;;;;6180393;23;20453;-57
2023/11/21 12:23:58;;;;;;;2.30;2.10;;;9.80;1.00;;;;;;6181842;23;20417;-58
2023/11/21 12:26:24;;;;;;;2.13;1.93;;;9.70;9.10;;;;;;6182089;23;20505;-56
2023/11/21 12:28:56;;;;;;;2.30;2.10;;;9.70;97.40;;;;;;6182010;23;21036;-57
2023/11/21 12:31:24;;;;;;;1.97;1.60;;;9.80;99.90;;;;;;6182946;23;20563;-58
2023/11/21 12:33:50;;;;;;;4.27;3.07;;;9.90;99.90;;;;;;6184226;23;20354;-59
2023/11/21 12:36:17;;;;;;;3.30;3.00;;;10.00;99.90;;;;;;6159956;23;20532;-57
2023/11/21 12:38:43;;;;;;;2.50;2.30;;;10.10;99.90;;;;;;6186396;23;20394;-59
2023/11/21 12:41:12;;;;;;;2.90;2.60;;;10.20;86.80;;;;;;6160396;23;20424;-58
2023/11/21 12:43:39;;;;;;;2.30;2.10;;;10.30;1.00;;;;;;6185125;23;20801;-54
2023/11/21 12:46:11;;;;;;;2.30;2.00;;;10.40;28.50;;;;;;6184165;23;20366;-59
2023/11/21 12:48:45;;;;;;;2.70;2.50;;;10.60;69.80;;;;;;6157110;23;20513;-58
2023/11/21 12:51:11;;;;;;;2.20;1.80;;;11.00;31.00;;;;;;6182911;23;20392;-58
2023/11/21 12:53:38;;;;;;;2.13;1.87;;;11.60;41.20;;;;;;6184339;23;20415;-58
2023/11/21 12:56:10;;;;;;;1.97;1.30;;;12.30;99.90;;;;;;6185489;23;20386;-57
2023/11/21 12:58:39;;;;;;;1.53;1.30;;;12.90;99.90;;;;;;6183209;23;20686;-57
2023/11/21 13:01:05;;;;;;;2.70;1.20;;;13.50;1.00;;;;;;6184021;23;20368;-57
2023/11/21 13:03:32;;;;;;;1.50;1.40;;;13.70;1.00;;;;;;6185517;23;20381;-58